Time;durP1;ratioP1;P1;durP2;ratioP2;P2;SDS_P1;SDS_P2;PMS_P1;PMS_P2;Temp;Humidity;BMP_temperature;BMP_pressure;BME280_temperature;BME280_humidity;BME280_pressure;Samples;Min_cycle;Max_cycle;Signal;HPM_P1;HPM_P2
2023/12/06 00:01:36;;;;;;;;;;;;;;;8.31;73.47;100481.88;10371398;28;97039;-79
2023/12/06 00:06:43;;;;;;;4.43;2.13;;;;;;;8.26;73.46;100477.66;10342431;28;96833;-79
2023/12/06 00:11:46;;;;;;;6.78;2.80;;;;;;;8.27;73.97;100461.91;10370348;28;96726;-79
2023/12/06 00:16:50;;;;;;;6.30;2.33;;;;;;;8.25;73.87;100461.09;10345549;28;96705;-79
2023/12/06 00:21:54;;;;;;;5.07;2.55;;;;;;;8.24;73.39;100450.66;10361698;28;97619;-79
2023/12/06 00:26:58;;;;;;;5.70;2.70;;;;;;;8.23;73.27;100436.66;10380455;28;96671;-79
2023/12/06 00:32:01;;;;;;;5.82;2.53;;;;;;;8.25;73.21;100434.88;10330208;28;96805;-79
2023/12/06 00:37:06;;;;;;;5.45;2.20;;;;;;;8.23;73.12;100462.88;10306107;28;96883;-79
2023/12/06 00:42:10;;;;;;;7.20;2.17;;;;;;;8.15;73.35;100466.63;10338870;28;96690;-79
2023/12/06 00:47:13;;;;;;;3.95;2.38;;;;;;;8.10;73.45;100452.78;10338044;28;97723;-79
2023/12/06 00:52:18;;;;;;;3.88;2.33;;;;;;;8.05;74.15;100455.50;10338251;28;96596;-78
2023/12/06 00:57:21;;;;;;;4.97;2.20;;;;;;;8.02;74.26;100447.72;10372561;28;97011;-79
2023/12/06 01:02:25;;;;;;;6.10;2.03;;;;;;;7.99;73.74;100432.09;10379433;28;96577;-79
2023/12/06 01:07:30;;;;;;;4.72;2.50;;;;;;;8.06;73.63;100440.63;10378728;28;97376;-79
2023/12/06 01:12:35;;;;;;;3.72;2.17;;;;;;;8.06;73.03;100435.41;10358923;28;97016;-79
2023/12/06 01:17:38;;;;;;;5.55;2.83;;;;;;;8.09;72.33;100438.81;10337467;28;97140;-79
2023/12/06 01:22:43;;;;;;;4.43;2.60;;;;;;;8.08;72.57;100458.06;10337772;28;96841;-79
2023/12/06 01:27:47;;;;;;;3.58;2.15;;;;;;;8.11;72.37;100465.84;10337499;28;97177;-79
2023/12/06 01:32:50;;;;;;;2.72;1.65;;;;;;;8.09;72.18;100480.72;10305819;28;97438;-79
2023/12/06 01:37:58;;;;;;;4.70;2.05;;;;;;;8.12;72.08;100467.53;10295082;28;96921;-79
2023/12/06 01:43:01;;;;;;;4.35;1.88;;;;;;;8.12;72.08;100398.56;10295018;28;96934;-79
2023/12/06 01:48:06;;;;;;;3.97;1.75;;;;;;;8.10;71.89;100408.22;10327645;28;96675;-79
2023/12/06 01:53:12;;;;;;;;;;;;;;;8.10;72.01;100408.22;10342997;28;96763;-79
2023/12/06 01:58:16;;;;;;;7.18;1.80;;;;;;;8.08;71.69;100405.66;10377694;28;96585;-79
2023/12/06 02:03:20;;;;;;;4.55;2.00;;;;;;;8.04;71.92;100422.34;10359739;28;97507;-79
2023/12/06 02:08:25;;;;;;;5.22;1.77;;;;;;;8.04;72.17;100430.19;10335312;28;96776;-79
2023/12/06 02:13:31;;;;;;;3.42;1.50;;;;;;;8.09;71.68;100430.94;10335936;28;96880;-79
2023/12/06 02:18:35;;;;;;;3.97;1.90;;;;;;;8.14;71.49;100430.81;10338918;28;97457;-79
2023/12/06 02:23:42;;;;;;;3.33;1.70;;;;;;;8.15;71.44;100441.25;10377143;28;96886;-79
2023/12/06 02:28:53;;;;;;;2.97;1.40;;;;;;;8.13;71.57;100466.66;10376597;28;96614;-79
2023/12/06 02:34:03;;;;;;;4.03;1.42;;;;;;;8.17;71.58;100462.19;10294903;28;96866;-79
2023/12/06 02:39:06;;;;;;;4.85;1.58;;;;;;;8.16;72.03;100463.06;10358714;28;96613;-79
2023/12/06 02:44:11;;;;;;;3.30;1.70;;;;;;;8.13;71.73;100484.13;10376355;28;96682;-79
2023/12/06 02:49:15;;;;;;;2.97;1.67;;;;;;;8.11;72.02;100481.56;10376098;28;96938;-79
2023/12/06 02:54:18;;;;;;;3.47;2.10;;;;;;;8.07;72.59;100476.41;10357793;28;96569;-79
2023/12/06 02:59:23;;;;;;;4.57;1.90;;;;;;;8.06;72.29;100477.34;10334509;28;96663;-79
2023/12/06 03:04:27;;;;;;;3.45;1.77;;;;;;;8.04;71.89;100468.63;10337677;28;96638;-79
2023/12/06 03:09:30;;;;;;;4.43;2.03;;;;;;;7.98;72.12;100461.78;10342851;28;96728;-79
2023/12/06 03:14:35;;;;;;;3.53;2.08;;;;;;;8.02;72.32;100480.91;10341484;28;97493;-79
2023/12/06 03:19:38;;;;;;;3.28;1.90;;;;;;;7.98;72.01;100494.09;10341029;28;96706;-79
2023/12/06 03:24:43;;;;;;;2.78;1.75;;;;;;;7.95;72.55;100523.00;10340578;28;96723;-79
2023/12/06 03:29:48;;;;;;;3.77;1.90;;;;;;;7.93;72.19;100519.56;10340212;28;96945;-79
2023/12/06 03:34:51;;;;;;;4.05;1.88;;;;;;;7.90;72.20;100514.41;10340307;28;97371;-79
2023/12/06 03:39:55;;;;;;;2.45;1.73;;;;;;;7.90;72.24;100527.50;10340321;28;96804;-79
2023/12/06 03:45:00;;;;;;;2.70;1.95;;;;;;;7.87;72.70;100526.72;10340495;28;96585;-79
2023/12/06 03:50:06;;;;;;;3.03;1.85;;;;;;;7.82;72.76;100526.81;10348583;28;96810;-79
2023/12/06 03:55:11;;;;;;;7.33;2.37;;;;;;;7.76;73.42;100520.88;10381506;28;97147;-79
2023/12/06 04:00:17;;;;;;;4.18;2.00;;;;;;;7.69;73.04;100498.34;10381390;28;97179;-79
2023/12/06 04:05:21;;;;;;;5.50;2.08;;;;;;;7.69;73.31;100490.47;10340077;28;96726;-79
2023/12/06 04:10:24;;;;;;;3.92;2.10;;;;;;;7.53;74.14;100479.50;10339722;28;96688;-79
2023/12/06 04:15:30;;;;;;;4.93;2.28;;;;;;;7.52;74.04;100466.47;10337857;28;97501;-79
2023/12/06 04:20:34;;;;;;;4.28;2.03;;;;;;;7.42;74.15;100459.72;10365996;28;97260;-79
2023/12/06 04:25:38;;;;;;;4.78;1.77;;;;;;;7.40;74.64;100458.91;10380216;28;96685;-79
2023/12/06 04:30:43;;;;;;;3.42;1.95;;;;;;;7.36;74.40;100463.34;10365573;28;97357;-79
2023/12/06 04:35:46;;;;;;;3.15;1.75;;;;;;;7.44;74.14;100460.56;10338878;28;97154;-79
2023/12/06 04:40:50;;;;;;;5.38;2.28;;;;;;;7.51;73.71;100459.53;10338623;28;96848;-79
2023/12/06 04:45:56;;;;;;;3.22;1.70;;;;;;;7.52;73.97;100484.78;10337860;28;96659;-79
2023/12/06 04:51:00;;;;;;;4.88;2.25;;;;;;;7.52;74.20;100471.69;10338157;28;96623;-79
2023/12/06 04:56:06;;;;;;;5.22;2.38;;;;;;;7.50;73.64;100463.00;10379786;28;96729;-79
2023/12/06 05:01:11;;;;;;;3.35;2.42;;;;;;;7.49;74.19;100458.69;10379273;28;97162;-79
2023/12/06 05:06:15;;;;;;;4.38;2.15;;;;;;;7.43;74.07;100459.69;10348906;22;97031;-79
2023/12/06 05:11:18;;;;;;;3.45;1.80;;;;;;;7.42;74.24;100455.38;10352620;28;96991;-79
2023/12/06 05:16:24;;;;;;;5.00;2.10;;;;;;;7.37;74.30;100472.06;10337291;28;96634;-79
2023/12/06 05:21:28;;;;;;;3.42;1.67;;;;;;;7.37;74.10;100485.16;10337292;28;97558;-79
2023/12/06 05:26:32;;;;;;;6.63;2.05;;;;;;;7.35;74.32;100490.44;10324991;28;97176;-79
2023/12/06 05:31:36;;;;;;;2.92;1.75;;;;;;;7.26;74.31;100498.47;10378019;28;97116;-79
2023/12/06 05:36:40;;;;;;;3.95;1.83;;;;;;;7.29;74.42;100508.88;10377953;28;97431;-79
2023/12/06 05:41:43;;;;;;;3.95;1.80;;;;;;;7.28;74.63;100511.53;10378044;28;96675;-79
2023/12/06 05:46:48;;;;;;;5.75;2.10;;;;;;;7.24;74.20;100486.31;10377714;28;97128;-79
2023/12/06 05:51:52;;;;;;;3.05;1.70;;;;;;;7.20;74.65;100463.75;10377683;28;96707;-79
2023/12/06 05:56:56;;;;;;;3.90;2.05;;;;;;;7.15;74.87;100468.19;10377656;28;96720;-79
2023/12/06 06:02:02;;;;;;;2.97;1.70;;;;;;;7.11;75.02;100483.13;10373755;28;97508;-79
2023/12/06 06:07:06;;;;;;;3.60;2.08;;;;;;;7.02;75.43;100504.25;10376502;28;96908;-79
2023/12/06 06:12:09;;;;;;;4.90;1.90;;;;;;;7.02;75.60;100495.53;10349740;28;96644;-79
2023/12/06 06:17:14;;;;;;;4.68;2.33;;;;;;;7.06;75.36;100495.44;10344886;28;97766;-79
2023/12/06 06:22:18;;;;;;;4.80;2.80;;;;;;;7.03;75.62;100498.13;10377276;28;97024;-79
2023/12/06 06:27:21;;;;;;;5.95;2.67;;;;;;;7.03;75.12;100481.53;10376529;28;96593;-79
2023/12/06 06:32:27;;;;;;;4.05;2.30;;;;;;;7.03;75.40;100487.66;10376543;28;96648;-79
2023/12/06 06:37:31;;;;;;;5.78;2.50;;;;;;;7.05;75.73;100490.22;10376171;28;96927;-79
2023/12/06 06:42:35;;;;;;;4.10;2.47;;;;;;;7.01;75.91;100504.28;10376155;28;97237;-79
2023/12/06 06:47:40;;;;;;;4.93;2.60;;;;;;;7.01;75.74;100499.06;10376010;28;97464;-79
2023/12/06 06:52:44;;;;;;;5.32;2.90;;;;;;;6.99;75.68;100506.91;10375299;28;96895;-79
2023/12/06 06:57:48;;;;;;;5.35;2.17;;;;;;;7.04;75.29;100512.06;10366538;28;97146;-79
2023/12/06 07:02:53;;;;;;;3.00;2.00;;;;;;;7.05;75.21;100519.88;10334753;28;96504;-79
2023/12/06 07:07:56;;;;;;;4.82;1.90;;;;;;;7.03;75.44;100526.03;10340986;28;97070;-79
2023/12/06 07:13:00;;;;;;;4.95;2.50;;;;;;;7.09;75.08;100539.00;10375761;28;97085;-79
2023/12/06 07:18:05;;;;;;;3.15;1.85;;;;;;;6.98;75.56;100548.81;10375784;28;96791;-79
2023/12/06 07:23:09;;;;;;;4.93;2.10;;;;;;;7.05;75.06;100550.41;10375318;28;97108;-79
2023/12/06 07:28:13;;;;;;;5.45;2.38;;;;;;;7.07;74.92;100552.13;10375731;28;97375;-79
2023/12/06 07:33:18;;;;;;;2.65;1.88;;;;;;;7.08;74.65;100553.81;10374729;28;96678;-79
2023/12/06 07:38:22;;;;;;;5.00;2.10;;;;;;;7.08;74.87;100545.13;10374774;28;96694;-79
2023/12/06 07:43:27;;;;;;;4.50;1.92;;;;;;;7.13;74.65;100569.44;10373517;28;96790;-79
2023/12/06 07:48:33;;;;;;;6.55;2.15;;;;;;;7.15;74.54;100584.19;10374497;28;96819;-79
2023/12/06 07:53:37;;;;;;;4.85;2.22;;;;;;;7.15;74.58;100591.19;10380642;28;96745;-79
2023/12/06 07:58:40;;;;;;;3.30;1.80;;;;;;;7.18;74.40;100597.22;10351034;28;97440;-79
2023/12/06 08:03:45;;;;;;;5.28;2.00;;;;;;;7.26;74.27;100602.31;10340097;28;96889;-79
2023/12/06 08:08:50;;;;;;;4.18;2.20;;;;;;;7.30;74.58;100607.47;10338834;28;96814;-79
2023/12/06 08:13:54;;;;;;;3.45;1.60;;;;;;;7.30;73.88;100619.69;10339217;28;97248;-79
2023/12/06 08:19:00;;;;;;;2.57;1.80;;;;;;;7.32;74.05;100625.75;10372223;28;96863;-79
2023/12/06 08:24:05;;;;;;;6.50;2.40;;;;;;;7.32;73.87;100633.59;10381015;28;97016;-79
2023/12/06 08:29:09;;;;;;;3.13;1.77;;;;;;;7.36;73.89;100628.25;10380212;28;97240;-79
2023/12/06 08:34:14;;;;;;;2.88;1.95;;;;;;;7.41;73.64;100638.63;10378918;28;97294;-79
2023/12/06 08:39:17;;;;;;;;;;;;;;;7.52;73.11;100631.41;10380562;28;96812;-79
2023/12/06 08:44:21;;;;;;;5.35;2.50;;;;;;;7.55;73.16;100632.22;10380097;28;97018;-79
2023/12/06 08:49:25;;;;;;;4.22;2.28;;;;;;;7.71;72.06;100651.09;10379478;28;96868;-79
2023/12/06 08:54:29;;;;;;;3.47;2.50;;;;;;;7.77;71.85;100646.56;10361579;28;97306;-79
2023/12/06 08:59:32;;;;;;;9.20;3.80;;;;;;;7.83;72.13;100643.81;10337942;28;96607;-79
2023/12/06 09:04:37;;;;;;;6.10;2.92;;;;;;;7.92;71.61;100658.47;10336904;28;96709;-79
2023/12/06 09:09:41;;;;;;;5.40;2.60;;;;;;;8.02;71.75;100640.75;10366058;28;98294;-79
2023/12/06 09:14:44;;;;;;;3.10;1.90;;;;;;;8.09;71.11;100652.84;10337267;28;96632;-79
2023/12/06 09:19:51;;;;;;;5.60;2.05;;;;;;;8.15;71.42;100643.06;10337440;28;97036;-79
2023/12/06 09:24:55;;;;;;;3.83;2.13;;;;;;;8.24;70.69;100650.72;10351318;28;97346;-79
2023/12/06 09:29:58;;;;;;;4.53;2.28;;;;;;;8.43;70.37;100672.97;10378124;28;96807;-79
2023/12/06 09:35:05;;;;;;;6.20;2.75;;;;;;;8.65;70.61;100663.66;10378009;28;96668;-79
2023/12/06 09:40:10;;;;;;;8.18;3.60;;;;;;;8.63;70.20;100657.63;10377851;28;96768;-79
2023/12/06 09:45:16;;;;;;;9.25;3.65;;;;;;;8.61;69.09;100671.66;10295760;28;97511;-79
2023/12/06 09:50:20;;;;;;;10.13;3.47;;;;;;;8.69;68.96;100670.56;10297274;28;96820;-79
2023/12/06 09:55:25;;;;;;;9.95;3.95;;;;;;;8.72;69.92;100683.59;10336346;28;96670;-79
2023/12/06 10:00:28;;;;;;;9.27;3.73;;;;;;;8.87;68.74;100683.22;10350666;28;97506;-79
2023/12/06 10:05:33;;;;;;;12.32;4.15;;;;;;;8.80;69.61;100686.91;10335509;28;96910;-79
2023/12/06 10:10:38;;;;;;;14.13;6.15;;;;;;;8.88;68.74;100705.06;10335778;28;96535;-79
2023/12/06 10:15:42;;;;;;;;;;;;;;;8.73;68.27;100716.81;10347322;28;96787;-79
2023/12/06 10:20:48;;;;;;;8.85;4.25;;;;;;;8.76;68.53;100724.59;10376983;28;96623;-79
2023/12/06 10:25:52;;;;;;;10.18;4.65;;;;;;;8.74;69.02;100734.28;10376961;28;97153;-79
2023/12/06 10:31:03;;;;;;;11.02;5.45;;;;;;;8.73;69.38;100724.69;10376320;28;97185;-79
2023/12/06 10:36:11;;;;;;;11.40;4.20;;;;;;;8.78;68.60;100735.06;10375487;28;96747;-79
2023/12/06 10:41:18;;;;;;;9.52;4.25;;;;;;;8.79;68.26;100737.63;10376655;28;96855;-79
2023/12/06 10:46:22;;;;;;;8.10;3.70;;;;;;;8.80;68.49;100743.75;10376058;28;97007;-79
2023/12/06 10:51:29;;;;;;;15.83;4.77;;;;;;;8.79;69.27;100747.31;10375235;28;97167;-79
2023/12/06 10:56:35;;;;;;;10.52;4.70;;;;;;;8.80;68.77;100744.63;10376510;28;96900;-79
2023/12/06 11:01:40;;;;;;;11.23;5.03;;;;;;;8.85;68.83;100749.75;10351430;28;96751;-79
2023/12/06 11:06:55;;;;;;;12.13;5.13;;;;;;;8.83;68.62;100743.69;10346338;28;96631;-79
2023/12/06 11:12:12;;;;;;;12.18;5.97;;;;;;;8.79;69.02;100740.25;10375662;28;96952;-79
2023/12/06 11:17:31;;;;;;;13.23;6.00;;;;;;;8.78;69.33;100743.81;10374930;28;97692;-79
2023/12/06 11:22:36;;;;;;;12.23;5.45;;;;;;;8.75;69.34;100743.00;10374626;28;96862;-79
2023/12/06 11:27:54;;;;;;;9.45;4.95;;;;;;;8.76;69.32;100737.72;10381998;28;96605;-79
2023/12/06 11:32:59;;;;;;;8.23;4.22;;;;;;;8.75;69.77;100725.53;10382143;28;96616;-79
2023/12/06 11:38:05;;;;;;;9.80;5.22;;;;;;;8.77;69.18;100710.59;10381906;28;96674;-79
2023/12/06 11:43:09;;;;;;;10.55;4.57;;;;;;;8.79;69.26;100705.31;10382359;28;96712;-79
2023/12/06 11:48:15;;;;;;;12.68;5.75;;;;;;;8.80;69.70;100696.53;10361051;28;96690;-79
2023/12/06 11:53:21;;;;;;;9.48;4.57;;;;;;;8.91;69.81;100700.59;10340134;28;97199;-79
2023/12/06 11:58:36;;;;;;;11.70;5.75;;;;;;;8.92;69.46;100681.34;10358322;28;96596;-79
2023/12/06 12:03:40;;;;;;;11.38;5.95;;;;;;;8.94;69.51;100678.66;10340843;28;97308;-79
2023/12/06 12:08:47;;;;;;;11.65;5.32;;;;;;;8.95;68.57;100669.88;10339382;28;96695;-79
2023/12/06 12:13:52;;;;;;;9.15;5.03;;;;;;;8.98;69.16;100654.91;10347101;28;97103;-79
2023/12/06 12:18:56;;;;;;;10.45;5.22;;;;;;;9.02;69.22;100651.31;10380411;28;96783;-79
2023/12/06 12:24:02;;;;;;;11.20;5.60;;;;;;;9.04;69.18;100653.91;10380665;28;97278;-79
2023/12/06 12:29:05;;;;;;;9.30;4.93;;;;;;;9.22;67.85;100632.41;10380176;28;96596;-79
2023/12/06 12:34:09;;;;;;;14.85;6.68;;;;;;;9.23;68.38;100635.88;10380481;28;97439;-79
2023/12/06 12:39:14;;;;;;;13.20;6.32;;;;;;;9.35;67.76;100623.28;10379191;28;96746;-79
2023/12/06 12:44:17;;;;;;;;;;;;;;;9.30;68.06;100614.69;10374400;28;96653;-79
2023/12/06 12:49:21;;;;;;;14.43;6.93;;;;;;;9.33;68.11;100604.09;10356310;28;97034;-79
2023/12/06 12:54:26;;;;;;;15.23;7.05;;;;;;;9.42;68.73;100608.22;10379257;28;96885;-79
2023/12/06 12:59:32;;;;;;;16.80;7.97;;;;;;;9.58;68.11;100609.50;10373851;28;97091;-79
2023/12/06 13:04:38;;;;;;;13.57;6.90;;;;;;;9.74;67.20;100627.38;10341735;28;97465;-79
2023/12/06 13:09:44;;;;;;;13.52;6.32;;;;;;;9.88;66.29;100604.16;10378947;28;96858;-79
2023/12/06 13:14:47;;;;;;;16.10;7.03;;;;;;;9.87;66.58;100601.56;10378639;28;96564;-79
2023/12/06 13:19:51;;;;;;;13.40;5.68;;;;;;;10.37;66.07;100597.34;10378724;28;96688;-79
2023/12/06 13:24:56;;;;;;;12.20;4.93;;;;;;;10.55;64.89;100591.44;10379642;28;97710;-79
2023/12/06 13:29:59;;;;;;;9.30;4.40;;;;;;;10.76;64.45;100569.66;10378525;28;96634;-79
2023/12/06 13:35:02;;;;;;;13.07;6.15;;;;;;;10.72;65.11;100562.75;10377920;28;97124;-79
2023/12/06 13:40:22;;;;;;;7.13;4.40;;;;;;;10.56;64.42;100551.91;10376821;28;97200;-79
2023/12/06 13:45:27;;;;;;;10.25;4.10;;;;;;;10.50;64.23;100554.78;10344132;28;96869;-79
2023/12/06 13:50:31;;;;;;;8.10;4.10;;;;;;;10.69;64.17;100553.22;10336245;28;96884;-79
2023/12/06 13:55:36;;;;;;;11.13;4.18;;;;;;;10.66;64.47;100539.31;10340027;28;96884;-79
2023/12/06 14:00:40;;;;;;;9.00;3.45;;;;;;;10.71;64.09;100522.44;10361810;28;96786;-79
2023/12/06 14:05:43;;;;;;;8.23;2.90;;;;;;;10.93;63.64;100533.91;10335518;28;96702;-79
2023/12/06 14:10:48;;;;;;;6.85;3.30;;;;;;;10.86;63.12;100540.31;10335521;28;96761;-79
2023/12/06 14:15:52;;;;;;;6.95;3.53;;;;;;;10.90;62.65;100539.28;10367907;28;96736;-79
2023/12/06 14:20:57;;;;;;;8.38;3.55;;;;;;;10.93;63.23;100528.63;10376968;28;96721;-79
2023/12/06 14:26:02;;;;;;;6.68;3.63;;;;;;;11.05;62.62;100514.16;10376443;28;96880;-79
2023/12/06 14:31:06;;;;;;;12.30;5.25;;;;;;;11.00;61.89;100522.25;10375617;28;97808;-79
2023/12/06 14:36:11;;;;;;;7.82;4.18;;;;;;;11.06;62.00;100502.72;10375826;28;97314;-79
2023/12/06 14:41:21;;;;;;;9.05;3.90;;;;;;;11.09;61.79;100494.72;10361938;28;96878;-79
2023/12/06 14:46:24;;;;;;;7.90;4.28;;;;;;;11.17;62.05;100493.53;10337437;28;97188;-79
2023/12/06 14:51:28;;;;;;;10.32;4.85;;;;;;;11.03;61.87;100508.06;10375527;28;96630;-79
2023/12/06 14:56:33;;;;;;;8.98;5.45;;;;;;;11.21;61.48;100508.31;10376081;28;96699;-79
2023/12/06 15:01:37;;;;;;;8.50;4.47;;;;;;;12.06;59.86;100486.41;10357429;28;97152;-79
2023/12/06 15:06:40;;;;;;;9.25;4.65;;;;;;;12.08;59.38;100479.28;10371581;28;96674;-79
2023/12/06 15:11:45;;;;;;;8.77;4.63;;;;;;;12.47;57.90;100467.88;10372160;28;97216;-79
2023/12/06 15:16:49;;;;;;;12.55;6.13;;;;;;;12.52;58.88;100462.38;10341340;28;96676;-79
2023/12/06 15:21:53;;;;;;;10.50;5.18;;;;;;;12.41;58.57;100467.31;10354877;28;96725;-79
2023/12/06 15:26:58;;;;;;;8.80;5.20;;;;;;;11.75;59.46;100475.41;10382448;28;96741;-79
2023/12/06 15:32:01;;;;;;;8.32;4.38;;;;;;;11.74;59.78;100484.22;10382081;28;97092;-79
2023/12/06 15:37:05;;;;;;;7.38;4.45;;;;;;;11.69;60.13;100481.78;10381635;28;96690;-79
2023/12/06 15:42:10;;;;;;;13.90;6.22;;;;;;;11.61;60.43;100483.88;10373631;28;97315;-79
2023/12/06 15:47:16;;;;;;;11.48;5.53;;;;;;;11.58;60.41;100481.34;10340181;28;97409;-79
2023/12/06 15:52:19;;;;;;;10.43;5.47;;;;;;;11.35;60.99;100484.06;10340091;28;97181;-79
2023/12/06 15:57:26;;;;;;;12.13;5.38;;;;;;;11.47;60.79;100496.75;10367859;28;96809;-79
2023/12/06 16:02:31;;;;;;;13.75;5.63;;;;;;;11.34;61.49;100488.47;10381307;28;96755;-79
2023/12/06 16:07:35;;;;;;;10.97;4.60;;;;;;;11.03;61.52;100482.63;10380565;28;96918;-79
2023/12/06 16:12:41;;;;;;;10.20;4.97;;;;;;;10.81;62.48;100486.09;10378613;28;96994;-79
2023/12/06 16:17:44;;;;;;;14.75;7.10;;;;;;;10.70;62.43;100497.03;10380448;28;96703;-79
2023/12/06 16:22:48;;;;;;;11.38;5.85;;;;;;;10.69;63.20;100504.97;10380285;28;96830;-79
2023/12/06 16:28:06;;;;;;;13.20;5.60;;;;;;;10.56;63.03;100509.81;10380472;28;96865;-79
2023/12/06 16:33:10;;;;;;;14.13;6.35;;;;;;;10.48;63.62;100511.88;10379331;28;96863;-79
2023/12/06 16:38:14;;;;;;;15.65;7.13;;;;;;;10.42;63.66;100519.97;10353316;28;97424;-79
2023/12/06 16:43:19;;;;;;;14.73;6.55;;;;;;;10.38;64.46;100534.16;10338456;28;96876;-79
2023/12/06 16:48:22;;;;;;;13.27;5.78;;;;;;;10.31;64.70;100530.00;10366410;28;96806;-79
2023/12/06 16:53:26;;;;;;;10.02;5.00;;;;;;;10.20;65.29;100547.91;10379335;28;97517;-79
2023/12/06 16:58:32;;;;;;;16.17;6.95;;;;;;;10.10;65.55;100555.25;10379718;28;97483;-79
2023/12/06 17:03:36;;;;;;;15.57;6.88;;;;;;;10.11;65.93;100563.97;10350932;28;97077;-79
2023/12/06 17:08:39;;;;;;;11.23;5.82;;;;;;;10.09;65.80;100573.72;10378857;28;97376;-79
2023/12/06 17:13:47;;;;;;;12.50;6.43;;;;;;;10.14;65.24;100572.63;10378947;28;96691;-79
2023/12/06 17:18:50;;;;;;;11.05;5.10;;;;;;;10.18;65.68;100581.28;10379035;28;96599;-79
2023/12/06 17:23:54;;;;;;;11.60;5.15;;;;;;;10.20;66.08;100574.19;10378238;28;97751;-79
2023/12/06 17:28:59;;;;;;;10.10;5.15;;;;;;;10.22;65.90;100570.63;10378491;28;96564;-79
2023/12/06 17:34:05;;;;;;;10.73;4.93;;;;;;;10.16;66.46;100575.19;10377265;22;96887;-78
2023/12/06 17:39:08;;;;;;;11.70;5.22;;;;;;;10.16;66.14;100580.47;10380381;28;97117;-79
2023/12/06 17:44:14;;;;;;;11.73;5.57;;;;;;;10.08;67.12;100587.75;10410398;28;96832;-79
2023/12/06 17:49:18;;;;;;;12.02;6.75;;;;;;;10.04;66.84;100594.88;10419867;28;96899;-79
2023/12/06 17:54:22;;;;;;;10.48;5.93;;;;;;;10.04;67.87;100601.91;10402872;28;97007;-79
2023/12/06 17:59:27;;;;;;;15.38;6.15;;;;;;;10.10;67.23;100612.22;10377446;28;96830;-79
2023/12/06 18:04:31;;;;;;;14.55;6.68;;;;;;;10.12;67.06;100618.31;10377047;28;97074;-79
2023/12/06 18:09:35;;;;;;;12.23;5.70;;;;;;;10.13;67.74;100625.28;10377408;28;97413;-79
2023/12/06 18:14:39;;;;;;;9.52;5.63;;;;;;;10.16;67.74;100633.06;10408745;27;96788;-79
2023/12/06 18:19:43;;;;;;;10.10;5.60;;;;;;;10.10;68.40;100639.41;10418903;28;97232;-79
2023/12/06 18:24:47;;;;;;;10.32;5.07;;;;;;;10.11;68.69;100646.34;10418522;28;97306;-79
2023/12/06 18:29:52;;;;;;;9.60;5.07;;;;;;;10.18;68.24;100652.28;10403107;27;96712;-79
2023/12/06 18:34:55;;;;;;;;;;;;;;;10.15;67.68;100652.38;10441563;27;96951;-79
2023/12/06 18:39:58;;;;;;;9.77;5.13;;;;;;;10.09;67.66;100655.22;10460181;27;96826;-79
2023/12/06 18:45:18;;;;;;;8.45;4.63;;;;;;;10.04;68.61;100663.22;10440378;27;97177;-79
2023/12/06 18:50:28;;;;;;;10.40;5.40;;;;;;;10.06;68.47;100657.91;10376008;28;96835;-79
2023/12/06 18:55:32;;;;;;;8.48;4.35;;;;;;;10.01;69.25;100665.97;10376122;28;96715;-79
2023/12/06 19:00:37;;;;;;;7.00;4.20;;;;;;;10.01;69.37;100670.34;10375844;28;96782;-79
2023/12/06 19:05:42;;;;;;;11.00;4.97;;;;;;;10.02;68.71;100680.81;10376054;28;97313;-79
2023/12/06 19:10:46;;;;;;;10.02;4.93;;;;;;;10.02;69.04;100699.22;10375807;28;96831;-79
2023/12/06 19:15:50;;;;;;;10.57;5.97;;;;;;;9.98;69.71;100699.38;10375909;28;98337;-79
2023/12/06 19:20:54;;;;;;;10.60;5.15;;;;;;;10.00;69.20;100684.41;10376450;28;96849;-79
2023/12/06 19:25:58;;;;;;;9.00;4.13;;;;;;;9.97;69.75;100684.50;10375278;28;97257;-79
2023/12/06 19:31:03;;;;;;;17.07;10.37;;;;;;;10.00;68.97;100694.94;10408340;27;96569;-79
2023/12/06 19:36:10;;;;;;;8.20;5.07;;;;;;;9.92;69.76;100695.16;10439607;27;96716;-79
2023/12/06 19:41:15;;;;;;;9.27;5.25;;;;;;;9.99;70.06;100682.69;10374919;28;96741;-79
2023/12/06 19:46:20;;;;;;;7.78;4.35;;;;;;;9.91;70.08;100666.28;10377941;28;96861;-79
2023/12/06 19:51:23;;;;;;;6.57;4.32;;;;;;;9.91;69.58;100655.78;10381676;28;96641;-79
2023/12/06 19:56:27;;;;;;;8.93;4.88;;;;;;;9.92;69.70;100666.25;10382507;28;96672;-79
2023/12/06 20:01:32;;;;;;;11.07;5.22;;;;;;;9.97;69.13;100666.97;10381209;28;96794;-79
2023/12/06 20:06:38;;;;;;;8.45;4.50;;;;;;;9.92;69.46;100668.88;10380753;28;96881;-79
2023/12/06 20:11:42;;;;;;;7.80;5.07;;;;;;;9.84;69.86;100670.00;10402630;28;96673;-79
2023/12/06 20:16:47;;;;;;;12.32;5.55;;;;;;;9.85;70.38;100669.97;10422723;28;96683;-79
2023/12/06 20:21:51;;;;;;;9.05;5.82;;;;;;;9.82;70.72;100667.44;10422455;28;96610;-79
2023/12/06 20:26:56;;;;;;;9.82;4.93;;;;;;;9.79;70.19;100675.41;10421921;27;96838;-79
2023/12/06 20:32:01;;;;;;;8.18;4.15;;;;;;;9.86;69.87;100657.69;10397247;28;96627;-79
2023/12/06 20:37:05;;;;;;;10.43;4.18;;;;;;;9.83;70.23;100663.88;10380217;28;96893;-79
2023/12/06 20:42:08;;;;;;;9.60;4.60;;;;;;;9.88;69.29;100667.22;10380631;28;97247;-79
2023/12/06 20:47:14;;;;;;;8.25;4.40;;;;;;;9.86;69.26;100674.31;10413931;28;96616;-79
2023/12/06 20:52:17;;;;;;;8.30;4.70;;;;;;;9.83;70.87;100681.44;10421339;28;96644;-79
2023/12/06 20:57:21;;;;;;;9.30;4.57;;;;;;;9.85;70.17;100687.47;10420463;27;96647;-79
2023/12/06 21:02:26;;;;;;;7.95;4.78;;;;;;;9.85;70.35;100688.34;10421059;28;96765;-79
2023/12/06 21:07:30;;;;;;;9.02;5.18;;;;;;;9.87;70.07;100704.94;10420664;28;96677;-79
2023/12/06 21:12:33;;;;;;;10.10;4.38;;;;;;;9.84;70.63;100694.53;10429352;27;96824;-79
2023/12/06 21:17:38;;;;;;;8.68;4.63;;;;;;;9.82;70.84;100692.84;10452886;27;96771;-79
2023/12/06 21:22:41;;;;;;;11.05;5.20;;;;;;;9.81;70.18;100693.75;10378962;28;97087;-79
2023/12/06 21:27:45;;;;;;;9.40;4.60;;;;;;;9.80;71.08;100698.16;10392741;28;96646;-79
2023/12/06 21:32:50;;;;;;;9.23;5.07;;;;;;;9.87;70.21;100686.56;10403207;28;96776;-79
2023/12/06 21:37:54;;;;;;;9.45;5.43;;;;;;;9.85;71.08;100698.00;10409045;28;97232;-79
2023/12/06 21:42:59;;;;;;;8.23;4.47;;;;;;;9.93;70.09;100699.53;10419679;28;97440;-79
2023/12/06 21:48:06;;;;;;;;;;;;;;;9.85;70.42;100695.38;10420152;28;96645;-79
2023/12/06 21:53:10;;;;;;;9.95;5.25;;;;;;;9.83;71.17;100695.41;10419777;28;97320;-79
2023/12/06 21:58:13;;;;;;;11.43;5.32;;;;;;;9.80;71.38;100695.53;10419264;28;97084;-79
2023/12/06 22:03:18;;;;;;;11.25;5.15;;;;;;;9.80;71.45;100698.16;10419616;28;96806;-79
2023/12/06 22:08:22;;;;;;;9.05;5.35;;;;;;;9.81;71.12;100701.66;10414293;27;97102;-79
2023/12/06 22:13:25;;;;;;;8.05;4.53;;;;;;;9.82;71.74;100703.34;10377099;28;96638;-79
2023/12/06 22:18:30;;;;;;;9.75;4.68;;;;;;;9.78;71.87;100699.13;10376960;28;96811;-79
2023/12/06 22:23:34;;;;;;;9.55;4.88;;;;;;;9.72;71.30;100696.66;10377053;28;97528;-79
2023/12/06 22:28:39;;;;;;;9.13;4.32;;;;;;;9.69;72.03;100705.47;10384122;28;96889;-79
2023/12/06 22:33:46;;;;;;;7.47;4.47;;;;;;;9.67;73.00;100703.81;10376599;28;96916;-79
2023/12/06 22:38:52;;;;;;;10.07;5.10;;;;;;;9.69;73.36;100715.16;10376257;28;96831;-78
2023/12/06 22:43:55;;;;;;;9.43;4.25;;;;;;;9.66;73.88;100717.84;10377715;28;96967;-78
2023/12/06 22:49:01;;;;;;;13.85;5.07;;;;;;;9.63;73.87;100724.06;10376223;28;96764;-78
2023/12/06 22:54:05;;;;;;;7.72;5.05;;;;;;;9.62;73.50;100722.34;10375826;28;96778;-79
2023/12/06 22:59:10;;;;;;;7.07;4.05;;;;;;;9.52;74.83;100715.59;10375272;28;97244;-79
2023/12/06 23:04:16;;;;;;;8.95;5.20;;;;;;;9.44;75.67;100711.47;10375462;28;97207;-79
2023/12/06 23:09:23;;;;;;;7.78;4.13;;;;;;;9.41;75.68;100715.06;10414881;27;97075;-79
2023/12/06 23:14:28;;;;;;;9.43;4.53;;;;;;;9.38;76.78;100714.28;10458981;27;97690;-78
2023/12/06 23:19:32;;;;;;;10.10;4.65;;;;;;;9.38;76.44;100703.78;10402638;27;96700;-79
2023/12/06 23:24:38;;;;;;;9.15;4.50;;;;;;;9.43;75.92;100689.63;10382443;28;96770;-78
2023/12/06 23:29:41;;;;;;;;;;;;;;;9.37;76.16;100683.66;10382973;28;97146;-79